Have a Safe July 4th! 

Flight Track Log - Related Links

Times and Time Zones

All times are in EDT time to prevent confusion due to time zone crossing. See the TAM3130 flight status page for this flight to view local times or setup timezone preferences in your user account.

Time Position Orientation Groundspeed Altitude Reporting Facility
EDT Latitude Longitude Course Direction KTS MPH feet Rate Location/Type
Thu 07:27:27 AM -23.7040 -46.5790 90° East 265 305 5,000  Level FlightAware ADS-B
Thu 07:27:52 AM -23.6940 -46.5440 73° East 274 315 6,300 3,055 Climbing FlightAware ADS-B
Thu 07:28:22 AM -23.6740 -46.5030 62° Northeast 284 327 7,800 1,600 Climbing FlightAware ADS-B
Thu 07:28:52 AM -23.6600 -46.4710 64° Northeast 284 327 7,900 1,824 Climbing FlightAware ADS-B
Thu 07:30:27 AM -23.6100 -46.3330 68° East 343 395 11,600 2,311 Climbing FlightAware ADS-B
Thu 07:31:07 AM -23.5840 -46.2570 70° East 368 423 13,100 2,047 Climbing FlightAware ADS-B
Thu 07:31:52 AM -23.5580 -46.1850 69° East 372 428 14,500 1,906 Climbing FlightAware ADS-B
Thu 07:32:32 AM -23.5300 -46.1090 68° East 384 442 15,800 1,906 Climbing FlightAware ADS-B
Thu 07:33:17 AM -23.4980 -46.0240 68° East 393 452 17,200 1,835 Climbing FlightAware ADS-B
Thu 07:33:57 AM -23.4740 -45.9570 69° East 396 456 18,400 1,800 Climbing FlightAware ADS-B
Thu 07:34:37 AM -23.4510 -45.8740 73° East 403 464 19,600 1,694 Climbing FlightAware ADS-B
Thu 07:35:22 AM -23.4300 -45.7870 75° East 408 470 20,800 1,553 Climbing FlightAware ADS-B
Thu 07:36:02 AM -23.4090 -45.7040 75° East 415 478 21,800 1,350 Climbing FlightAware ADS-B
Thu 07:36:42 AM -23.3890 -45.6230 75° East 428 493 22,600 1,271 Climbing FlightAware ADS-B
Thu 07:37:27 AM -23.3660 -45.5300 75° East 436 502 23,600 1,341 Climbing FlightAware ADS-B
Thu 07:38:07 AM -23.3450 -45.4420 75° East 442 509 24,500 1,341 Climbing FlightAware ADS-B
Thu 07:38:52 AM -23.3210 -45.3460 75° East 447 514 25,500 1,200 Climbing FlightAware ADS-B
Thu 07:39:32 AM -23.2990 -45.2570 75° East 452 520 26,200 1,129 Climbing FlightAware ADS-B
Thu 07:40:17 AM -23.2680 -45.1710 69° East 456 525 27,100 1,200 Climbing FlightAware ADS-B
Thu 07:40:57 AM -23.2390 -45.0750 72° East 463 533 27,900 1,280 Climbing FlightAware ADS-B
Thu 07:41:32 AM -23.2250 -44.9990 79° East 461 531 28,700 1,050 Climbing FlightAware ADS-B
Thu 07:42:17 AM -23.2080 -44.9040 79° East 468 539 29,300 1,000 Climbing FlightAware ADS-B
Thu 07:43:02 AM -23.1890 -44.8000 79° East 469 540 30,200 1,125 Climbing FlightAware ADS-B
Thu 07:43:37 AM -23.1620 -44.7200 70° East 468 539 30,800 1,200 Climbing FlightAware ADS-B
Thu 07:44:17 AM -23.1220 -44.6340 63° Northeast 465 535 31,700 1,333 Climbing FlightAware ADS-B
Thu 07:45:07 AM -23.0700 -44.5240 63° Northeast 464 534 32,800 1,200 Climbing FlightAware ADS-B
Thu 07:45:52 AM -23.0260 -44.4300 63° Northeast 463 533 33,600 988 Climbing FlightAware ADS-B
Thu 07:46:32 AM -22.9860 -44.3460 63° Northeast 464 534 34,200 900 Climbing FlightAware ADS-B
Thu 07:47:12 AM -22.9480 -44.2650 63° Northeast 463 533 34,800 565 Climbing FlightAware ADS-B
Thu 07:47:57 AM -22.9040 -44.1720 63° Northeast 458 527 35,000 141 Climbing FlightAware ADS-B
Thu 07:48:37 AM -22.8660 -44.0910 63° Northeast 459 528 35,000  Level FlightAware ADS-B
Thu 07:49:22 AM -22.8250 -44.0040 63° Northeast 460 529 35,000  Level FlightAware ADS-B
Thu 07:49:57 AM -22.8010 -43.9550 62° Northeast 459 528 35,000  Level FlightAware ADS-B
Thu 07:50:42 AM -22.7490 -43.8450 63° Northeast 459 528 35,000  Level FlightAware ADS-B
Thu 07:51:27 AM -22.6960 -43.7340 63° Northeast 460 529 35,000  Level FlightAware ADS-B
Thu 07:52:07 AM -22.6580 -43.6520 63° Northeast 461 531 35,000  Level FlightAware ADS-B
Thu 07:52:47 AM -22.6180 -43.5690 62° Northeast 461 531 35,000  Level FlightAware ADS-B
Thu 07:53:32 AM -22.5750 -43.4800 62° Northeast 461 531 35,000  Level FlightAware ADS-B
Thu 07:54:12 AM -22.5370 -43.4020 62° Northeast 461 531 35,000  Level FlightAware ADS-B
Thu 07:54:57 AM -22.4910 -43.3040 63° Northeast 461 531 35,000  Level FlightAware ADS-B
Thu 07:55:37 AM -22.4520 -43.2230 62° Northeast 462 532 35,000  Level FlightAware ADS-B
Thu 07:56:17 AM -22.4130 -43.1420 63° Northeast 462 532 35,000  Level FlightAware ADS-B
Thu 07:57:02 AM -22.3570 -43.0560 55° Northeast 462 532 35,000  Level FlightAware ADS-B
Thu 07:57:42 AM -22.3050 -42.9840 52° Northeast 462 532 35,000  Level FlightAware ADS-B
Thu 07:58:27 AM -22.2440 -42.9000 52° Northeast 462 532 35,000  Level FlightAware ADS-B
Thu 07:59:07 AM -22.1930 -42.8300 52° Northeast 462 532 35,000  Level FlightAware ADS-B
Thu 07:59:57 AM -22.1250 -42.7380 51° Northeast 462 532 35,000  Level FlightAware ADS-B
Thu 08:00:27 AM -22.0880 -42.6870 52° Northeast 462 532 35,000  Level FlightAware ADS-B
Thu 08:01:07 AM -22.0330 -42.6120 52° Northeast 462 532 35,000  Level FlightAware ADS-B
Thu 08:01:47 AM -21.9810 -42.5420 51° Northeast 462 532 35,000  Level FlightAware ADS-B
Thu 08:02:27 AM -21.9270 -42.4690 51° Northeast 462 532 35,000  Level FlightAware ADS-B
Thu 08:03:07 AM -21.8730 -42.3960 51° Northeast 461 531 35,000  Level FlightAware ADS-B
Thu 08:03:47 AM -21.8210 -42.3250 52° Northeast 461 531 35,000  Level FlightAware ADS-B
Thu 08:04:27 AM -21.7670 -42.2520 51° Northeast 461 531 35,000  Level FlightAware ADS-B
Thu 08:05:07 AM -21.7140 -42.1810 51° Northeast 461 531 35,000  Level FlightAware ADS-B
Thu 08:05:47 AM -21.6610 -42.1090 52° Northeast 461 531 35,000  Level FlightAware ADS-B
Thu 08:06:32 AM -21.6010 -42.0270 52° Northeast 459 528 35,000  Level FlightAware ADS-B
Thu 08:07:12 AM -21.5470 -41.9550 51° Northeast 459 528 35,000  Level FlightAware ADS-B
Thu 08:07:57 AM -21.4880 -41.8770 51° Northeast 460 529 35,000  Level FlightAware ADS-B
Thu 08:08:37 AM -21.4350 -41.8050 52° Northeast 459 528 35,000  Level FlightAware ADS-B
Thu 08:09:17 AM -21.3800 -41.7320 51° Northeast 458 527 35,000 -1,059 Level FlightAware ADS-B
Thu 08:10:02 AM -21.3200 -41.6510 52° Northeast 454 522 33,500 -1,389 Descending FlightAware ADS-B
Thu 08:10:52 AM -21.2600 -41.5710 51° Northeast 451 519 32,800 -1,958 Descending FlightAware ADS-B
Thu 08:11:37 AM -21.2030 -41.4940 52° Northeast 438 504 30,400 -2,471 Descending FlightAware ADS-B
Thu 08:12:17 AM -21.1620 -41.4400 51° Northeast 433 498 29,300 -1,950 Descending FlightAware ADS-B
Thu 08:12:57 AM -21.1030 -41.3610 51° Northeast 431 496 27,800  Descending FlightAware ADS-B
Thu 08:13:37 AM -21.1620 -41.4400 231° Southwest 433 498 29,300 -282 Climbing FlightAware ADS-B
Thu 08:14:22 AM -21.0920 -41.3460 51° Northeast 414 476 27,400 -2,267 Descending FlightAware ADS-B
Thu 08:15:07 AM -21.0350 -41.2710 51° Northeast 417 480 25,900 -2,067 Descending FlightAware ADS-B
Thu 08:15:52 AM -20.9750 -41.1910 51° Northeast 410 472 24,300 -1,906 Descending FlightAware ADS-B
Thu 08:17:57 AM -20.8350 -41.0060 50° Northeast 392 451 20,500 -1,729 Descending FlightAware ADS-B
Thu 08:18:00 AM -20.8290 -41.0056 50° Northeast  Level Estimated
Thu 08:18:42 AM -20.7920 -40.9490 51° Northeast 385 443 19,400  Level FlightAware ADS-B
Thu 08:19:22 AM -20.7480 -40.8910 51° Northeast 379 436 18,300 -1,800 Descending FlightAware ADS-B
Thu 08:20:02 AM -20.6980 -40.8260 51° Northeast 374 430 17,000 -1,765 Descending FlightAware ADS-B
Thu 08:20:47 AM -20.6370 -40.7590 46° Northeast 363 418 15,800 -1,560 Descending FlightAware ADS-B
Thu 08:21:42 AM -20.5640 -40.6990 38° Northeast 358 412 14,400 -1,533 Descending FlightAware ADS-B
Thu 08:22:17 AM -20.5190 -40.6600 39° Northeast 356 410 13,500 -1,575 Descending FlightAware ADS-B
Thu 08:23:02 AM -20.4600 -40.6120 37° Northeast 353 406 12,300 -1,600 Descending FlightAware ADS-B
Thu 08:23:47 AM -20.4050 -40.5650 39° Northeast 351 404 11,100 -1,500 Descending FlightAware ADS-B
Thu 08:24:22 AM -20.3590 -40.5280 37° Northeast 347 399 10,300 -1,129 Descending FlightAware ADS-B
Thu 08:25:12 AM -20.3010 -40.4790 38° Northeast 321 369 9,500 -1,267 Descending FlightAware ADS-B
Thu 08:25:52 AM -20.2500 -40.4360 38° Northeast 313 360 8,400 -1,600 Descending FlightAware ADS-B
Thu 08:26:27 AM -20.2030 -40.3980 37° Northeast 298 343 7,500 -1,600 Descending FlightAware ADS-B
Thu 08:26:37 AM -20.1870 -40.3850 37° Northeast 297 342 7,200 -1,600 Descending FlightAware ADS-B
Thu 08:26:57 AM -20.1670 -40.3680 39° Northeast 294 338 6,700 -1,320 Descending FlightAware ADS-B
Thu 08:27:27 AM -20.1420 -40.3480 37° Northeast 291 335 6,100 -1,200 Descending FlightAware ADS-B
Thu 08:28:02 AM -20.1090 -40.3200 39° Northeast 284 327 5,400 -1,569 Descending FlightAware ADS-B
Thu 08:28:32 AM -20.0720 -40.2890 38° Northeast 283 326 4,400 -1,745 Descending FlightAware ADS-B
Thu 08:28:57 AM -20.0520 -40.2610 53° Northeast 280 322 3,800 -1,418 Descending FlightAware ADS-B
Thu 08:29:27 AM -20.0660 -40.2240 112° Southeast 259 298 3,100 -873 Descending FlightAware ADS-B
Thu 08:29:52 AM -20.0870 -40.2070 143° Southeast 230 265 3,000 -109 Descending FlightAware ADS-B
Thu 08:30:22 AM -20.1100 -40.1930 150° Southeast 196 226 3,000 -600 Level FlightAware ADS-B
Thu 08:30:52 AM -20.1360 -40.2060 205° Southwest 186 214 2,400 -1,200 Descending FlightAware ADS-B
Thu 08:31:07 AM -20.1490 -40.2140 210° Southwest 175 201 2,100 -933 Descending FlightAware ADS-B
Thu 08:31:37 AM -20.1670 -40.2270 214° Southwest 155 178 1,700 -764 Descending FlightAware ADS-B
Thu 08:32:02 AM -20.1800 -40.2360 213° Southwest 142 163 1,400 -720 Descending FlightAware ADS-B
Thu 08:32:27 AM -20.1910 -40.2430 211° Southwest 135 155 1,100 -720 Descending FlightAware ADS-B
Thu 08:32:52 AM -20.2050 -40.2520 211° Southwest 131 151 800 -655 Descending FlightAware ADS-B
Thu 08:33:22 AM -20.2200 -40.2620 212° Southwest 133 153 500 -667 Descending FlightAware ADS-B
Thu 08:33:37 AM -20.2280 -40.2670 210° Southwest 136 157 300 -800 Descending FlightAware ADS-B
Thu 08:34:07 AM -20.2410 -40.2760 213° Southwest 135 155 -600 Descending FlightAware ADS-B
Thu 08:34:12 AM -20.2450 -40.2780 205° Southwest 135 155  Level FlightAware ADS-B
Thu 08:43:00 AM -20.2581 -40.2864 285° West  Level Estimated
Thu 08:44:00 AM -20.2581 -40.2864 13° North  Level Estimated
Thu 08:45:00 AM -20.2581 -40.2864 13° North  Level Estimated

Login

Don't have an account? Register now (free) for customized features, flight alerts, and more!